Terminal Aerodrome Forecast
Issued by NWS Los Angeles, CA

Home | Current Version | Previous Version | Text Only | Print | Product List | Glossary On
Versions: 1 2 3 4 5 6 7 8 9 10 11 12 13 14 15 16 17 18 19 20 21 22 23
000
FTUS46 KLOX 251700
TAFSMX
TAF
KSMX 251738Z 2518/2618 22004KT 2SM -RA BR OVC009
     FM251900 30010KT 3SM -RA BR BKN010 BKN022
     FM252000 30015KT P6SM -RA BKN015 OVC035
     FM252200 32018G25KT P6SM SCT025 BKN040
     FM260300 31008KT P6SM SCT250
     FM261000 31006KT P6SM SCT010 SCT250=

USA.gov is the U.S. government's official web portal to all federal, state and local government web resources and services.